createdAt,value
2023-08-17T00:00:02.330Z,18.76
2023-08-17T00:01:02.052Z,18.74
2023-08-17T00:02:01.969Z,18.69
2023-08-17T00:03:02.142Z,18.58
2023-08-17T00:04:01.869Z,18.62
2023-08-17T00:05:01.776Z,18.58
2023-08-17T00:06:02.101Z,18.57
2023-08-17T00:07:01.628Z,18.57
2023-08-17T00:08:01.550Z,18.59
2023-08-17T00:09:01.439Z,18.57
2023-08-17T00:10:01.453Z,18.55
2023-08-17T00:11:01.298Z,18.50
2023-08-17T00:13:01.339Z,18.59
2023-08-17T00:14:01.064Z,18.57
2023-08-17T00:15:00.984Z,18.55
2023-08-17T00:16:43.399Z,18.59
2023-08-17T00:18:26.006Z,18.64
2023-08-17T00:19:25.757Z,18.58
2023-08-17T00:20:25.658Z,18.59
2023-08-17T00:21:25.578Z,18.65
2023-08-17T00:22:25.512Z,18.64
2023-08-17T00:23:25.830Z,18.64
2023-08-17T00:24:25.370Z,18.50
2023-08-17T00:25:25.478Z,18.49
2023-08-17T00:30:34.305Z,18.49
2023-08-17T00:31:34.285Z,18.49
2023-08-17T00:32:34.154Z,18.42
2023-08-17T00:33:34.082Z,18.49
2023-08-17T00:34:34.027Z,18.42
2023-08-17T00:35:33.927Z,18.42
2023-08-17T00:36:33.884Z,18.37
2023-08-17T00:37:33.776Z,18.44
2023-08-17T00:38:33.700Z,18.43
2023-08-17T00:39:33.624Z,18.50
2023-08-17T00:40:33.547Z,18.52
2023-08-17T00:41:33.470Z,18.47
2023-08-17T00:42:33.398Z,18.52
2023-08-17T00:43:33.328Z,18.57
2023-08-17T00:44:33.244Z,18.64
2023-08-17T00:45:33.168Z,18.62
2023-08-17T00:46:33.090Z,18.55
2023-08-17T00:47:33.038Z,18.59
2023-08-17T00:48:32.948Z,18.61
2023-08-17T00:49:32.884Z,18.57
2023-08-17T00:50:32.826Z,18.69
2023-08-17T00:51:32.723Z,18.61
2023-08-17T00:52:32.639Z,18.69
2023-08-17T00:53:32.583Z,18.61
2023-08-17T00:54:32.489Z,18.69
2023-08-17T00:55:32.974Z,18.73
2023-08-17T00:56:32.337Z,18.74
2023-08-17T00:57:32.259Z,18.80
2023-08-17T00:58:32.392Z,18.80
2023-08-17T00:59:36.779Z,18.79
2023-08-17T01:00:32.041Z,18.94
2023-08-17T01:01:31.976Z,18.92
2023-08-17T01:02:31.886Z,18.90
2023-08-17T01:03:31.815Z,18.92
2023-08-17T01:04:31.764Z,18.92
2023-08-17T01:05:31.657Z,18.92
2023-08-17T01:06:31.625Z,18.89
2023-08-17T01:07:31.519Z,18.98
2023-08-17T01:08:31.434Z,18.97
2023-08-17T01:09:31.372Z,18.99
2023-08-17T01:10:31.286Z,19.02
2023-08-17T01:11:31.212Z,19.06
2023-08-17T01:12:31.137Z,19.01
2023-08-17T01:13:31.061Z,18.99
2023-08-17T01:14:30.981Z,18.92
2023-08-17T01:15:30.932Z,18.92
2023-08-17T01:16:30.832Z,18.98
2023-08-17T01:17:30.798Z,18.86
2023-08-17T01:18:30.717Z,18.82
2023-08-17T01:19:30.604Z,18.77
2023-08-17T01:20:30.543Z,18.80
2023-08-17T01:21:30.455Z,18.79
2023-08-17T01:22:30.401Z,18.76
2023-08-17T01:23:30.304Z,18.73
2023-08-17T01:24:30.228Z,18.67
2023-08-17T01:25:30.152Z,18.71
2023-08-17T01:26:30.081Z,18.65
2023-08-17T01:27:30.004Z,18.59
2023-08-17T01:28:29.928Z,18.64
2023-08-17T01:29:29.897Z,18.64
2023-08-17T01:30:29.775Z,18.61
2023-08-17T01:31:29.789Z,18.65
2023-08-17T01:32:29.658Z,18.64
2023-08-17T01:33:29.551Z,18.57
2023-08-17T01:34:29.477Z,18.62
2023-08-17T01:35:29.399Z,18.53
2023-08-17T01:36:29.326Z,18.50
2023-08-17T01:37:29.252Z,18.49
2023-08-17T01:38:29.546Z,18.58
2023-08-17T01:39:29.126Z,18.52
2023-08-17T01:40:29.021Z,18.47
2023-08-17T01:41:28.951Z,18.47
2023-08-17T01:42:28.885Z,18.44
2023-08-17T01:43:28.795Z,18.40
2023-08-17T01:44:28.744Z,18.42
2023-08-17T01:45:28.642Z,18.43
2023-08-17T01:46:28.796Z,18.37
2023-08-17T01:47:28.924Z,18.44
2023-08-17T01:48:28.429Z,18.34
2023-08-17T01:49:28.355Z,18.35
2023-08-17T01:50:28.267Z,18.21
2023-08-17T01:51:28.190Z,18.21
2023-08-17T01:52:28.125Z,18.19
2023-08-17T01:53:28.064Z,18.22
2023-08-17T01:54:28.039Z,18.16
2023-08-17T01:55:27.931Z,18.16
2023-08-17T01:56:27.814Z,18.16
2023-08-17T01:57:27.969Z,18.18
2023-08-17T01:58:27.660Z,18.21
2023-08-17T01:59:27.589Z,18.18
2023-08-17T02:00:27.513Z,18.24
2023-08-17T02:01:27.441Z,18.24
2023-08-17T02:02:27.419Z,18.21
2023-08-17T02:03:27.286Z,18.14
2023-08-17T02:04:27.211Z,18.19
2023-08-17T02:05:27.129Z,18.19
2023-08-17T02:06:27.058Z,18.21
2023-08-17T02:07:27.571Z,18.21
2023-08-17T02:08:26.906Z,18.19
2023-08-17T02:09:26.910Z,18.18
2023-08-17T02:10:26.779Z,18.21
2023-08-17T02:11:26.686Z,18.19
2023-08-17T02:12:26.752Z,18.18
2023-08-17T02:13:26.523Z,18.13
2023-08-17T02:14:26.450Z,18.19
2023-08-17T02:15:26.401Z,18.22
2023-08-17T02:16:26.323Z,18.24
2023-08-17T02:17:26.456Z,18.18
2023-08-17T02:18:26.147Z,18.27
2023-08-17T02:19:26.067Z,18.22
2023-08-17T02:20:25.996Z,18.14
2023-08-17T02:21:25.920Z,18.16
2023-08-17T02:22:25.895Z,18.00
2023-08-17T02:23:25.765Z,18.10
2023-08-17T02:24:25.692Z,18.09
2023-08-17T02:28:46.317Z,18.02
2023-08-17T02:29:46.220Z,17.98
2023-08-17T02:30:46.158Z,17.95
2023-08-17T02:31:46.065Z,17.92
2023-08-17T02:32:46.022Z,17.88
2023-08-17T02:33:45.911Z,17.95
2023-08-17T02:34:45.837Z,17.94
2023-08-17T02:35:45.779Z,17.96
2023-08-17T02:36:45.689Z,18.00
2023-08-17T02:37:45.605Z,18.03
2023-08-17T02:38:45.570Z,18.02
2023-08-17T02:39:45.453Z,18.00
2023-08-17T02:40:45.379Z,17.96
2023-08-17T02:41:45.302Z,17.91
2023-08-17T02:42:45.235Z,17.91
2023-08-17T02:44:56.732Z,17.85
2023-08-17T02:45:52.758Z,17.81
2023-08-17T02:46:52.714Z,17.79
2023-08-17T02:47:55.278Z,17.82
2023-08-17T02:48:52.569Z,17.70
2023-08-17T02:49:52.451Z,17.79
2023-08-17T02:50:52.422Z,17.79
2023-08-17T02:51:52.306Z,17.79
2023-08-17T02:52:52.221Z,17.91
2023-08-17T02:53:52.143Z,17.91
2023-08-17T02:54:52.069Z,17.98
2023-08-17T02:55:51.989Z,17.92
2023-08-17T02:56:51.919Z,17.96
2023-08-17T02:57:51.838Z,18.04
2023-08-17T02:58:51.763Z,18.04
2023-08-17T02:59:51.692Z,18.03
2023-08-17T03:00:51.630Z,17.95
2023-08-17T03:01:51.807Z,17.98
2023-08-17T03:02:51.530Z,17.95
2023-08-17T03:03:51.581Z,17.91
2023-08-17T03:04:51.314Z,17.95
2023-08-17T03:05:51.228Z,17.87
2023-08-17T03:06:51.157Z,17.91
2023-08-17T03:07:51.078Z,17.92
2023-08-17T03:08:51.010Z,17.92
2023-08-17T03:09:51.177Z,17.85
2023-08-17T03:10:50.851Z,17.89
2023-08-17T03:11:51.071Z,17.91
2023-08-17T03:12:50.696Z,17.94
2023-08-17T03:13:50.631Z,17.88
2023-08-17T03:14:50.794Z,17.87
2023-08-17T03:15:50.471Z,17.82
2023-08-17T03:16:50.521Z,17.74
2023-08-17T03:17:50.430Z,17.81
2023-08-17T03:18:50.246Z,17.79
2023-08-17T03:19:50.164Z,17.85
2023-08-17T03:20:50.090Z,17.91
2023-08-17T03:21:50.015Z,17.91
2023-08-17T03:22:50.098Z,17.96
2023-08-17T03:23:49.866Z,17.79
2023-08-17T03:24:49.986Z,17.79
2023-08-17T03:25:49.712Z,17.77
2023-08-17T03:26:49.633Z,17.76
2023-08-17T03:27:49.556Z,17.79
2023-08-17T03:28:49.486Z,17.87
2023-08-17T03:29:49.406Z,17.88
2023-08-17T03:30:49.359Z,17.88
2023-08-17T03:31:49.256Z,17.89
2023-08-17T03:32:49.233Z,17.89
2023-08-17T03:33:49.100Z,17.89
2023-08-17T03:34:49.022Z,17.96
2023-08-17T03:35:48.948Z,17.95
2023-08-17T03:36:48.875Z,17.95
2023-08-17T03:37:48.797Z,17.95
2023-08-17T03:38:48.721Z,17.95
2023-08-17T03:39:48.652Z,17.82
2023-08-17T03:40:48.574Z,17.77
2023-08-17T03:46:37.374Z,17.73
2023-08-17T03:47:37.267Z,17.69
2023-08-17T03:48:37.185Z,17.71
2023-08-17T03:49:37.087Z,17.71
2023-08-17T03:50:37.030Z,17.73
2023-08-17T03:51:36.936Z,17.87
2023-08-17T03:52:37.202Z,17.85
2023-08-17T03:54:36.954Z,17.74
2023-08-17T03:55:36.670Z,17.76
2023-08-17T03:56:36.592Z,17.70
2023-08-17T03:57:39.062Z,17.79
2023-08-17T03:58:36.596Z,17.70
2023-08-17T03:59:36.363Z,17.70
2023-08-17T04:00:36.285Z,17.67
2023-08-17T04:01:36.247Z,17.57
2023-08-17T04:02:36.486Z,17.74
2023-08-17T04:03:36.062Z,17.70
2023-08-17T04:04:35.977Z,17.73
2023-08-17T04:05:35.907Z,17.67
2023-08-17T04:06:35.839Z,17.69
2023-08-17T04:07:35.757Z,17.69
2023-08-17T04:08:35.680Z,17.69
2023-08-17T04:09:35.605Z,17.69
2023-08-17T04:10:35.490Z,17.70
2023-08-17T04:11:35.415Z,17.73
2023-08-17T04:12:35.373Z,17.60
2023-08-17T04:13:35.296Z,17.63
2023-08-17T04:14:35.225Z,17.70
2023-08-17T04:15:35.156Z,17.66
2023-08-17T04:16:35.340Z,17.63
2023-08-17T04:18:34.882Z,17.64
2023-08-17T04:19:34.860Z,17.63
2023-08-17T04:20:34.752Z,17.58
2023-08-17T04:21:34.689Z,17.63
2023-08-17T04:22:34.624Z,17.63
2023-08-17T04:23:34.512Z,17.69
2023-08-17T04:24:34.726Z,17.69
2023-08-17T04:25:34.388Z,17.84
2023-08-17T04:26:34.313Z,17.84
2023-08-17T04:27:34.204Z,17.96
2023-08-17T04:28:34.366Z,17.94
2023-08-17T04:29:34.041Z,17.95
2023-08-17T04:30:33.968Z,17.96
2023-08-17T04:31:33.943Z,17.92
2023-08-17T04:32:34.186Z,17.94
2023-08-17T04:33:33.771Z,17.98
2023-08-17T04:34:33.699Z,17.92
2023-08-17T04:35:33.625Z,17.95
2023-08-17T04:36:33.580Z,17.98
2023-08-17T04:37:33.482Z,17.98
2023-08-17T04:38:33.360Z,17.96
2023-08-17T04:39:33.280Z,18.03
2023-08-17T04:40:33.457Z,18.00
2023-08-17T04:41:33.134Z,18.11
2023-08-17T04:42:33.093Z,18.10
2023-08-17T04:43:33.013Z,18.18
2023-08-17T04:44:32.904Z,18.21
2023-08-17T04:45:33.131Z,18.18
2023-08-17T04:46:32.786Z,18.21
2023-08-17T04:47:32.753Z,18.19
2023-08-17T04:50:58.485Z,18.31
2023-08-17T04:51:58.214Z,18.32
2023-08-17T04:52:59.949Z,18.39
2023-08-17T04:53:58.281Z,18.34
2023-08-17T05:13:32.067Z,18.50
2023-08-17T05:14:31.971Z,18.46
2023-08-17T05:15:32.208Z,18.52
2023-08-17T05:17:29.660Z,18.47
2023-08-17T05:18:29.250Z,18.39
2023-08-17T05:19:29.170Z,18.44
2023-08-17T05:20:29.085Z,18.42
2023-08-17T05:21:29.115Z,18.32
2023-08-17T05:22:28.932Z,18.42
2023-08-17T05:23:28.858Z,18.42
2023-08-17T05:24:28.833Z,18.40
2023-08-17T05:25:28.711Z,18.40
2023-08-17T05:26:28.650Z,18.40
2023-08-17T05:27:28.684Z,18.46
2023-08-17T05:28:28.485Z,18.53
2023-08-17T05:29:28.524Z,18.49
2023-08-17T05:30:28.338Z,18.57
2023-08-17T05:31:28.358Z,18.62
2023-08-17T05:32:28.200Z,18.61
2023-08-17T05:33:28.103Z,18.65
2023-08-17T05:34:28.027Z,18.68
2023-08-17T05:35:27.965Z,18.73
2023-08-17T05:36:27.874Z,18.76
2023-08-17T05:37:28.076Z,18.65
2023-08-17T05:38:27.825Z,18.68
2023-08-17T05:39:27.649Z,18.67
2023-08-17T05:40:27.577Z,18.61
2023-08-17T05:41:27.504Z,18.61
2023-08-17T05:42:27.425Z,18.50
2023-08-17T05:43:27.358Z,18.42
2023-08-17T05:44:27.281Z,18.49
2023-08-17T05:45:27.220Z,18.57
2023-08-17T05:46:27.253Z,18.49
2023-08-17T05:47:27.507Z,18.52
2023-08-17T05:48:26.980Z,18.44
2023-08-17T05:49:26.903Z,18.43
2023-08-17T05:50:26.821Z,18.44
2023-08-17T05:51:26.745Z,18.46
2023-08-17T05:52:26.675Z,18.47
2023-08-17T05:53:26.607Z,18.47
2023-08-17T05:54:26.520Z,18.47
2023-08-17T05:55:26.476Z,18.57
2023-08-17T05:56:26.366Z,18.53
2023-08-17T05:57:26.481Z,18.44
2023-08-17T05:58:26.230Z,18.49
2023-08-17T05:59:26.200Z,18.50
2023-08-17T06:00:26.082Z,18.52
2023-08-17T06:01:26.015Z,18.58
2023-08-17T06:02:25.943Z,18.59
2023-08-17T06:03:25.917Z,18.52
2023-08-17T06:04:25.762Z,18.55
2023-08-17T06:05:25.695Z,18.55
2023-08-17T06:06:25.610Z,18.50
2023-08-17T06:07:25.911Z,18.52
2023-08-17T06:08:25.460Z,18.44
2023-08-17T06:09:25.671Z,18.37
2023-08-17T06:10:25.312Z,18.40
2023-08-17T06:11:25.497Z,18.40
2023-08-17T06:12:25.163Z,18.42
2023-08-17T06:13:25.090Z,18.40
2023-08-17T06:14:25.015Z,18.42
2023-08-17T06:15:24.984Z,18.39
2023-08-17T06:16:24.876Z,18.40
2023-08-17T06:17:25.210Z,18.37
2023-08-17T06:18:24.706Z,18.31
2023-08-17T06:19:24.646Z,18.32
2023-08-17T06:20:24.558Z,18.47
2023-08-17T06:21:24.483Z,18.43
2023-08-17T06:22:24.408Z,18.32
2023-08-17T06:23:24.350Z,18.39
2023-08-17T06:24:24.253Z,18.42
2023-08-17T06:25:24.179Z,18.28
2023-08-17T06:26:24.102Z,18.25
2023-08-17T06:27:24.583Z,18.28
2023-08-17T06:28:23.957Z,18.31
2023-08-17T06:29:23.879Z,18.34
2023-08-17T06:30:23.815Z,18.32
2023-08-17T06:31:23.746Z,18.29
2023-08-17T06:32:23.656Z,18.40
2023-08-17T06:33:23.597Z,18.50
2023-08-17T06:34:23.500Z,18.52
2023-08-17T06:35:23.424Z,18.58
2023-08-17T06:36:23.356Z,18.64
2023-08-17T06:37:23.276Z,18.65
2023-08-17T06:38:23.211Z,18.69
2023-08-17T06:39:23.131Z,18.77
2023-08-17T06:40:23.052Z,18.74
2023-08-17T06:41:22.976Z,18.79
2023-08-17T06:42:22.900Z,18.80
2023-08-17T06:43:22.830Z,18.76
2023-08-17T06:44:22.751Z,18.97
2023-08-17T06:45:22.697Z,18.95
2023-08-17T06:46:22.645Z,18.95
2023-08-17T06:47:22.544Z,18.94
2023-08-17T06:48:22.457Z,18.89
2023-08-17T06:49:22.424Z,18.89
2023-08-17T06:50:22.299Z,18.89
2023-08-17T06:51:22.232Z,18.84
2023-08-17T06:52:22.400Z,18.95
2023-08-17T06:53:22.073Z,18.97
2023-08-17T06:54:21.997Z,18.98
2023-08-17T06:55:21.923Z,18.97
2023-08-17T06:56:21.851Z,18.99
2023-08-17T06:57:21.821Z,19.02
2023-08-17T06:58:21.700Z,19.09
2023-08-17T06:59:21.625Z,19.13
2023-08-17T07:00:21.556Z,19.13
2023-08-17T07:01:21.527Z,19.13
2023-08-17T07:02:21.410Z,19.24
2023-08-17T07:03:21.343Z,19.11
2023-08-17T07:04:21.298Z,19.24
2023-08-17T07:05:21.271Z,19.27
2023-08-17T07:06:21.100Z,19.31
2023-08-17T07:07:21.027Z,19.23
2023-08-17T07:08:20.958Z,19.20
2023-08-17T07:09:20.904Z,19.21
2023-08-17T07:10:20.802Z,19.24
2023-08-17T07:11:20.883Z,19.09
2023-08-17T07:12:20.670Z,19.24
2023-08-17T07:13:20.586Z,19.17
2023-08-17T07:14:22.986Z,19.18
2023-08-17T07:15:20.428Z,19.20
2023-08-17T07:16:20.394Z,19.23
2023-08-17T07:17:20.302Z,19.17
2023-08-17T07:18:20.213Z,19.20
2023-08-17T07:19:23.320Z,19.23
2023-08-17T07:20:20.058Z,19.38
2023-08-17T07:21:20.017Z,19.32
2023-08-17T07:22:19.917Z,19.38
2023-08-17T07:23:19.838Z,19.45
2023-08-17T07:24:19.761Z,19.32
2023-08-17T07:25:19.735Z,19.36
2023-08-17T07:26:19.631Z,19.40
2023-08-17T07:27:19.537Z,19.24
2023-08-17T07:28:19.467Z,19.39
2023-08-17T07:29:19.401Z,19.39
2023-08-17T07:30:19.317Z,19.40
2023-08-17T07:31:19.303Z,19.38
2023-08-17T07:32:19.179Z,19.32
2023-08-17T07:33:19.095Z,19.43
2023-08-17T07:34:19.221Z,19.40
2023-08-17T07:35:18.945Z,19.42
2023-08-17T07:36:18.868Z,19.51
2023-08-17T07:37:18.823Z,19.69
2023-08-17T07:38:18.725Z,19.55
2023-08-17T07:39:18.646Z,19.51
2023-08-17T07:40:18.569Z,19.68
2023-08-17T07:41:18.497Z,19.65
2023-08-17T07:42:18.457Z,19.65
2023-08-17T07:43:18.356Z,19.57
2023-08-17T07:44:18.279Z,19.64
2023-08-17T07:45:18.209Z,19.64
2023-08-17T07:46:18.142Z,19.63
2023-08-17T07:47:18.055Z,19.60
2023-08-17T07:48:17.975Z,19.63
2023-08-17T07:49:30.297Z,19.69
2023-08-17T07:50:17.823Z,19.71
2023-08-17T07:51:17.768Z,19.95
2023-08-17T07:52:17.677Z,19.98
2023-08-17T07:53:17.630Z,20.01
2023-08-17T07:54:17.526Z,20.12
2023-08-17T07:55:17.473Z,20.08
2023-08-17T07:56:17.377Z,20.13
2023-08-17T07:57:17.309Z,20.09
2023-08-17T07:58:17.228Z,20.18
2023-08-17T07:59:17.159Z,20.18
2023-08-17T08:00:17.100Z,20.19
2023-08-17T08:01:17.031Z,20.31
2023-08-17T08:02:16.991Z,20.31
2023-08-17T08:03:16.861Z,20.30
2023-08-17T08:04:16.785Z,20.33
2023-08-17T08:05:16.997Z,20.43
2023-08-17T08:06:16.640Z,20.37
2023-08-17T08:07:16.565Z,20.40
2023-08-17T08:08:16.493Z,20.38
2023-08-17T08:09:16.438Z,20.61
2023-08-17T08:10:16.794Z,20.66
2023-08-17T08:12:16.714Z,20.62
2023-08-17T08:13:17.782Z,20.64
2023-08-17T08:15:16.218Z,20.74
2023-08-17T08:16:16.261Z,20.76
2023-08-17T08:17:15.831Z,20.66
2023-08-17T08:18:15.829Z,20.64
2023-08-17T08:19:15.692Z,20.59
2023-08-17T08:20:15.618Z,20.59
2023-08-17T08:21:15.537Z,20.65
2023-08-17T08:22:15.480Z,20.66
2023-08-17T08:23:15.386Z,20.64
2023-08-17T08:24:26.775Z,20.75
2023-08-17T08:25:15.264Z,20.56
2023-08-17T08:26:15.210Z,20.54
2023-08-17T08:27:15.101Z,20.57
2023-08-17T08:28:15.043Z,20.65
2023-08-17T08:29:14.954Z,20.51
2023-08-17T08:30:14.945Z,20.62
2023-08-17T08:31:14.811Z,20.74
2023-08-17T08:32:14.728Z,20.72
2023-08-17T08:33:14.683Z,20.82
2023-08-17T08:34:14.587Z,20.80
2023-08-17T08:35:14.532Z,20.71
2023-08-17T08:36:14.448Z,20.74
2023-08-17T08:37:14.362Z,20.83
2023-08-17T08:38:14.292Z,20.94
2023-08-17T08:39:14.249Z,20.98
2023-08-17T08:40:14.362Z,21.06
2023-08-17T08:41:14.100Z,20.93
2023-08-17T08:42:14.038Z,21.17
2023-08-17T08:43:13.921Z,21.20
2023-08-17T08:44:13.852Z,21.35
2023-08-17T08:45:13.816Z,21.38
2023-08-17T08:46:13.964Z,21.36
2023-08-17T08:47:13.631Z,21.31
2023-08-17T08:48:13.571Z,21.31
2023-08-17T08:49:13.718Z,21.41
2023-08-17T08:57:12.922Z,21.66
2023-08-17T08:58:12.838Z,21.74
2023-08-17T08:59:12.754Z,21.70
2023-08-17T09:00:12.685Z,21.64
2023-08-17T09:01:12.641Z,21.78
2023-08-17T09:02:13.684Z,21.92
2023-08-17T09:03:12.618Z,22.04
2023-08-17T09:04:12.746Z,22.08
2023-08-17T09:05:12.445Z,22.16
2023-08-17T09:07:12.173Z,22.17
2023-08-17T09:10:12.391Z,22.41
2023-08-17T09:11:11.984Z,22.41
2023-08-17T09:16:11.635Z,22.62
2023-08-17T09:17:11.452Z,22.71
2023-08-17T09:18:13.740Z,22.65
2023-08-17T09:19:11.344Z,22.69
2023-08-17T09:20:11.300Z,22.63
2023-08-17T09:21:11.163Z,22.60
2023-08-17T09:22:11.088Z,22.59
2023-08-17T09:23:11.017Z,22.60
2023-08-17T09:24:10.947Z,22.57
2023-08-17T09:25:10.890Z,22.54
2023-08-17T09:26:10.871Z,22.38
2023-08-17T09:27:11.089Z,22.44
2023-08-17T09:28:13.378Z,22.35
2023-08-17T09:31:10.469Z,22.38
2023-08-17T09:32:10.385Z,22.31
2023-08-17T09:33:10.346Z,22.32
2023-08-17T09:34:10.227Z,22.35
2023-08-17T09:35:10.152Z,22.30
2023-08-17T09:36:10.470Z,22.30
2023-08-17T09:37:10.212Z,22.34
2023-08-17T09:38:10.330Z,22.22
2023-08-17T09:40:09.999Z,22.23
2023-08-17T09:41:09.718Z,22.44
2023-08-17T09:42:09.693Z,22.50
2023-08-17T09:43:09.740Z,22.65
2023-08-17T09:44:09.500Z,22.65
2023-08-17T09:45:09.471Z,22.63
2023-08-17T09:46:09.675Z,22.74
2023-08-17T09:47:09.317Z,22.72
2023-08-17T09:48:09.485Z,22.86
2023-08-17T09:49:09.141Z,22.93
2023-08-17T09:50:09.075Z,22.96
2023-08-17T09:51:08.993Z,22.89
2023-08-17T09:52:08.956Z,22.67
2023-08-17T09:53:08.884Z,22.69
2023-08-17T09:54:08.809Z,22.89
2023-08-17T09:55:08.958Z,22.86
2023-08-17T09:56:08.700Z,22.78
2023-08-17T09:57:08.563Z,22.87
2023-08-17T09:58:08.490Z,22.89
2023-08-17T09:59:08.418Z,23.09
2023-08-17T10:00:08.403Z,23.27
2023-08-17T10:01:08.306Z,23.40
2023-08-17T10:02:08.437Z,23.23
2023-08-17T10:12:07.649Z,23.38
2023-08-17T10:14:11.862Z,23.53
2023-08-17T10:15:07.514Z,23.42
2023-08-17T10:16:07.483Z,23.40
2023-08-17T10:17:07.128Z,23.20
2023-08-17T10:18:07.118Z,22.99
2023-08-17T10:20:07.151Z,23.14
2023-08-17T10:21:06.875Z,23.34
2023-08-17T10:23:10.571Z,23.35
2023-08-17T10:24:07.076Z,23.34
2023-08-17T10:25:07.712Z,23.33
2023-08-17T10:26:06.735Z,23.12
2023-08-17T10:27:06.655Z,23.22
2023-08-17T10:28:06.406Z,23.26
2023-08-17T10:29:15.349Z,23.11
2023-08-17T10:30:09.398Z,23.23
2023-08-17T10:32:06.125Z,23.48
2023-08-17T10:33:06.912Z,23.42
2023-08-17T10:35:13.635Z,23.56
2023-08-17T10:36:14.071Z,23.46
2023-08-17T10:37:16.110Z,23.55
2023-08-17T10:38:13.836Z,23.58
2023-08-17T10:39:13.556Z,23.48
2023-08-17T10:40:15.726Z,23.53
2023-08-17T10:41:17.812Z,23.48
2023-08-17T10:43:14.342Z,23.53
2023-08-17T10:44:13.197Z,23.61
2023-08-17T10:45:13.115Z,23.64
2023-08-17T10:46:13.048Z,23.68
2023-08-17T10:47:12.976Z,23.80
2023-08-17T10:48:13.082Z,23.80
2023-08-17T10:49:12.644Z,23.93
2023-08-17T10:50:12.565Z,23.80
2023-08-17T10:51:12.765Z,23.78
2023-08-17T10:52:12.382Z,23.89
2023-08-17T10:53:12.308Z,23.93
2023-08-17T10:54:12.239Z,24.04
2023-08-17T10:55:12.168Z,24.26
2023-08-17T10:56:12.541Z,24.07
2023-08-17T10:57:12.025Z,24.02
2023-08-17T10:59:16.577Z,24.16
2023-08-17T11:00:11.873Z,24.30
2023-08-17T11:01:11.781Z,24.15
2023-08-17T11:07:11.425Z,24.26
2023-08-17T11:08:11.257Z,24.27
2023-08-17T11:09:11.802Z,24.27
2023-08-17T11:10:11.169Z,24.48
2023-08-17T11:11:11.045Z,24.56
2023-08-17T11:12:10.961Z,24.60
2023-08-17T11:13:10.899Z,24.76
2023-08-17T11:14:10.819Z,24.78
2023-08-17T11:15:10.776Z,24.93
2023-08-17T11:16:10.801Z,24.86
2023-08-17T11:17:10.612Z,24.80
2023-08-17T11:18:10.794Z,24.78
2023-08-17T11:19:13.479Z,24.83
2023-08-17T11:20:15.177Z,25.10
2023-08-17T11:21:10.336Z,25.19
2023-08-17T11:22:10.299Z,25.31
2023-08-17T11:23:10.235Z,25.31
2023-08-17T11:24:10.405Z,24.88
2023-08-17T11:25:10.049Z,24.80
2023-08-17T11:28:17.764Z,24.80
2023-08-17T11:29:18.452Z,24.80
2023-08-17T11:30:17.601Z,24.88
2023-08-17T11:31:17.640Z,24.88
2023-08-17T11:32:17.430Z,24.95
2023-08-17T11:33:17.432Z,25.16
2023-08-17T11:34:17.312Z,25.15
2023-08-17T11:35:17.235Z,25.31
2023-08-17T11:36:17.154Z,25.47
2023-08-17T11:37:17.122Z,25.47
2023-08-17T11:38:17.019Z,25.65
2023-08-17T11:39:16.944Z,25.72
2023-08-17T11:40:17.097Z,25.84
2023-08-17T11:41:19.600Z,25.96
2023-08-17T11:42:20.179Z,26.15
2023-08-17T11:44:16.596Z,26.23
2023-08-17T11:45:16.527Z,26.43
2023-08-17T11:46:16.580Z,26.27
2023-08-17T11:47:16.386Z,26.40
2023-08-17T11:48:16.316Z,26.53
2023-08-17T11:49:16.246Z,26.65
2023-08-17T11:50:21.291Z,26.38
2023-08-17T11:51:16.129Z,26.35
2023-08-17T11:52:16.046Z,26.38
2023-08-17T11:53:16.042Z,26.40
2023-08-17T11:56:41.568Z,26.87
2023-08-17T11:57:41.531Z,26.79
2023-08-17T11:58:41.470Z,26.77
2023-08-17T11:59:41.361Z,26.90
2023-08-17T12:00:41.293Z,27.38
2023-08-17T12:01:42.530Z,27.62
2023-08-17T12:03:53.702Z,27.94
2023-08-17T12:04:56.228Z,28.43
2023-08-17T12:05:53.550Z,28.87
2023-08-17T12:06:53.472Z,28.66
2023-08-17T12:07:53.408Z,28.26
2023-08-17T12:09:45.842Z,28.31
2023-08-17T12:10:45.773Z,28.62
2023-08-17T12:11:45.724Z,28.66
2023-08-17T12:12:45.648Z,28.25
2023-08-17T12:13:45.583Z,27.98
2023-08-17T12:15:39.366Z,27.98
2023-08-17T12:16:39.228Z,28.09
2023-08-17T12:17:39.212Z,28.20
2023-08-17T12:18:39.150Z,27.87
2023-08-17T12:19:39.033Z,27.77
2023-08-17T12:20:39.068Z,27.77
2023-08-17T12:21:38.923Z,27.94
2023-08-17T12:22:38.841Z,28.11
2023-08-17T12:23:38.774Z,28.32
2023-08-17T12:24:38.760Z,28.46
2023-08-17T12:25:38.650Z,28.43
2023-08-17T12:26:38.728Z,28.14
2023-08-17T12:27:38.514Z,27.84
2023-08-17T12:28:38.453Z,27.35
2023-08-17T12:29:38.589Z,27.35
2023-08-17T12:30:38.325Z,27.34
2023-08-17T12:31:38.304Z,27.39
2023-08-17T12:32:38.225Z,27.36
2023-08-17T12:33:38.146Z,27.35
2023-08-17T12:34:38.062Z,27.24
2023-08-17T12:35:38.089Z,27.08
2023-08-17T12:36:37.925Z,26.80
2023-08-17T12:37:37.865Z,26.72
2023-08-17T12:38:37.801Z,26.55
2023-08-17T12:39:37.737Z,26.27
2023-08-17T12:40:37.665Z,26.16
2023-08-17T12:41:37.591Z,26.23
2023-08-17T12:42:37.526Z,26.25
2023-08-17T12:43:37.458Z,26.35
2023-08-17T12:44:37.393Z,26.46
2023-08-17T12:45:37.673Z,26.60
2023-08-17T12:46:37.264Z,26.61
2023-08-17T12:47:37.216Z,26.61
2023-08-17T12:48:37.122Z,26.71
2023-08-17T12:49:39.527Z,26.53
2023-08-17T12:50:43.438Z,26.62
2023-08-17T12:51:36.916Z,26.43
2023-08-17T12:52:36.848Z,26.40
2023-08-17T12:53:36.782Z,26.52
2023-08-17T12:54:36.713Z,26.55
2023-08-17T12:55:36.645Z,26.71
2023-08-17T12:56:36.576Z,26.61
2023-08-17T12:57:36.509Z,26.57
2023-08-17T12:58:36.449Z,26.61
2023-08-17T12:59:36.418Z,26.52
2023-08-17T13:00:36.363Z,26.67
2023-08-17T13:01:36.233Z,26.69
2023-08-17T13:02:36.206Z,26.77
2023-08-17T13:03:36.146Z,26.64
2023-08-17T13:04:36.036Z,26.68
2023-08-17T13:05:35.985Z,26.69
2023-08-17T13:06:47.472Z,26.79
2023-08-17T13:07:35.821Z,26.75
2023-08-17T13:09:35.688Z,26.83
2023-08-17T13:10:35.617Z,27.12
2023-08-17T13:11:35.549Z,27.24
2023-08-17T13:12:35.481Z,27.01
2023-08-17T13:13:35.414Z,27.09
2023-08-17T13:14:35.752Z,27.27
2023-08-17T13:16:35.250Z,27.24
2023-08-17T13:17:35.250Z,27.05
2023-08-17T13:18:35.079Z,27.05
2023-08-17T13:19:35.004Z,26.92
2023-08-17T13:20:34.933Z,26.95
2023-08-17T13:21:34.905Z,26.94
2023-08-17T13:22:35.138Z,27.09
2023-08-17T13:23:34.766Z,27.07
2023-08-17T13:24:34.675Z,26.94
2023-08-17T13:26:34.532Z,27.19
2023-08-17T13:27:34.458Z,27.23
2023-08-17T13:28:34.427Z,27.45
2023-08-17T13:29:34.451Z,27.65
2023-08-17T13:30:34.294Z,27.76
2023-08-17T13:31:34.315Z,27.91
2023-08-17T13:35:34.807Z,28.11
2023-08-17T13:36:34.743Z,27.94
2023-08-17T13:37:34.703Z,28.24
2023-08-17T13:38:34.616Z,28.35
2023-08-17T13:39:34.580Z,28.49
2023-08-17T13:40:34.468Z,28.69
2023-08-17T13:41:34.415Z,28.84
2023-08-17T13:42:34.335Z,29.21
2023-08-17T13:43:34.267Z,29.47
2023-08-17T13:44:34.207Z,29.53
2023-08-17T13:45:34.140Z,29.66
2023-08-17T13:46:34.512Z,29.68
2023-08-17T13:47:34.073Z,29.37
2023-08-17T13:48:33.934Z,29.09
2023-08-17T13:49:33.872Z,28.81
2023-08-17T13:50:33.810Z,28.88
2023-08-17T13:51:33.739Z,28.75
2023-08-17T13:52:33.673Z,28.76
2023-08-17T13:53:33.633Z,28.69
2023-08-17T13:54:33.541Z,28.80
2023-08-17T13:55:33.481Z,28.69
2023-08-17T13:56:33.411Z,28.65
2023-08-17T13:57:33.348Z,28.83
2023-08-17T13:58:33.278Z,29.16
2023-08-17T13:59:33.217Z,29.21
2023-08-17T14:00:33.147Z,29.04
2023-08-17T14:01:33.089Z,29.03
2023-08-17T14:02:33.538Z,29.22
2023-08-17T14:03:33.042Z,29.32
2023-08-17T14:04:32.925Z,28.90
2023-08-17T14:05:32.817Z,28.73
2023-08-17T14:06:32.754Z,28.72
2023-08-17T14:07:32.687Z,28.54
2023-08-17T14:08:32.629Z,28.44
2023-08-17T14:09:32.577Z,28.35
2023-08-17T14:10:39.148Z,28.50
2023-08-17T14:11:32.469Z,28.66
2023-08-17T14:12:32.357Z,28.69
2023-08-17T14:13:32.292Z,28.47
2023-08-17T14:14:32.228Z,28.63
2023-08-17T14:15:32.161Z,28.65
2023-08-17T14:16:32.128Z,28.54
2023-08-17T14:17:32.030Z,28.68
2023-08-17T14:18:31.962Z,28.49
2023-08-17T14:19:31.902Z,28.59
2023-08-17T14:20:31.837Z,28.47
2023-08-17T14:21:31.798Z,28.46
2023-08-17T14:22:31.699Z,28.54
2023-08-17T14:23:31.654Z,28.56
2023-08-17T14:24:31.561Z,28.68
2023-08-17T14:25:31.523Z,28.80